Time;durP1;ratioP1;P1;durP2;ratioP2;P2;SDS_P1;SDS_P2;PMS_P1;PMS_P2;Temp;Humidity;BMP_temperature;BMP_pressure;BME280_temperature;BME280_humidity;BME280_pressure;Samples;Min_cycle;Max_cycle;Signal;HPM_P1;HPM_P2
2021/10/24 00:00:13;;;;;;;;;27.75;25.50;;;;;;;;5084534;27;45335;-72
2021/10/24 00:02:38;;;;;;;;;24.50;20.00;;;;;;;;5081314;27;45479;-72
2021/10/24 00:05:04;;;;;;;;;18.50;17.75;;;;;;;;5080646;27;45509;-72
2021/10/24 00:07:30;;;;;;;;;20.00;19.00;;;;;;;;5080352;27;47506;-72
2021/10/24 00:09:56;;;;;;;;;23.50;18.75;;;;;;;;5076038;27;46182;-72
2021/10/24 00:12:21;;;;;;;;;21.75;19.50;;;;;;;;5082249;27;45446;-71
2021/10/24 00:14:46;;;;;;;;;23.00;21.00;;;;;;;;5080018;27;45380;-72
2021/10/24 00:17:11;;;;;;;;;17.50;16.50;;;;;;;;5080081;27;45377;-72
2021/10/24 00:19:37;;;;;;;;;20.50;17.00;;;;;;;;5079869;27;47186;-72
2021/10/24 00:22:05;;;;;;;;;19.00;17.00;;;;;;;;5076174;27;45598;-72
2021/10/24 00:24:31;;;;;;;;;19.50;17.00;;;;;;;;5081663;27;45282;-73
2021/10/24 00:26:56;;;;;;;;;18.50;15.50;;;;;;;;5081071;27;45600;-72
2021/10/24 00:29:22;;;;;;;;;16.50;16.25;;;;;;;;5078738;27;45437;-72
2021/10/24 00:31:47;;;;;;;;;19.00;17.75;;;;;;;;5078736;27;45503;-72
2021/10/24 00:34:12;;;;;;;;;19.50;18.00;;;;;;;;5077226;27;45886;-72
2021/10/24 00:36:38;;;;;;;;;21.50;20.00;;;;;;;;5079637;27;45332;-72
2021/10/24 00:39:03;;;;;;;;;20.75;20.50;;;;;;;;5080865;27;46149;-72
2021/10/24 00:41:30;;;;;;;;;24.50;20.50;;;;;;;;5061910;28;45326;-72
2021/10/24 00:43:55;;;;;;;;;15.50;13.00;;;;;;;;5080190;27;45308;-72
2021/10/24 00:46:20;;;;;;;;;18.25;16.00;;;;;;;;5078428;27;45292;-72
2021/10/24 00:48:46;;;;;;;;;15.75;14.50;;;;;;;;5076445;27;46163;-72
2021/10/24 00:51:13;;;;;;;;;20.25;19.25;;;;;;;;5063406;28;45436;-71
2021/10/24 00:53:38;;;;;;;;;17.50;16.25;;;;;;;;5080163;27;45529;-72
2021/10/24 00:56:03;;;;;;;;;17.50;16.50;;;;;;;;5080039;27;45537;-72
2021/10/24 00:58:29;;;;;;;;;16.75;14.75;;;;;;;;5079110;27;46303;-72
2021/10/24 01:00:55;;;;;;;;;17.75;17.75;;;;;;;;5074856;27;45693;-71
2021/10/24 01:03:20;;;;;;;;;19.50;17.25;;;;;;;;5081016;27;45290;-71
2021/10/24 01:05:46;;;;;;;;;16.00;15.00;;;;;;;;5079561;27;45463;-72
2021/10/24 01:08:11;;;;;;;;;17.00;15.00;;;;;;;;5077664;27;45621;-72
2021/10/24 01:10:37;;;;;;;;;11.25;10.00;;;;;;;;5077803;27;45446;-71
2021/10/24 01:13:03;;;;;;;;;19.25;19.25;;;;;;;;5075238;27;45367;-73
2021/10/24 01:15:28;;;;;;;;;17.25;16.50;;;;;;;;5081454;27;45960;-72
2021/10/24 01:17:53;;;;;;;;;15.50;15.00;;;;;;;;5079019;27;46319;-71
2021/10/24 01:20:20;;;;;;;;;15.75;14.75;;;;;;;;5061338;28;45409;-71
2021/10/24 01:22:45;;;;;;;;;14.00;12.25;;;;;;;;5079492;27;45775;-72
2021/10/24 01:25:11;;;;;;;;;14.25;13.00;;;;;;;;5076364;27;45642;-72
2021/10/24 01:27:36;;;;;;;;;17.25;15.50;;;;;;;;5078957;27;45390;-72
2021/10/24 01:30:03;;;;;;;;;16.75;15.00;;;;;;;;5079842;27;46213;-71
2021/10/24 01:32:28;;;;;;;;;18.00;14.25;;;;;;;;5079016;27;45375;-70
2021/10/24 01:34:55;;;;;;;;;14.00;13.50;;;;;;;;5078765;27;45304;-71
2021/10/24 01:37:20;;;;;;;;;16.00;15.00;;;;;;;;5077060;27;47007;-69
2021/10/24 01:39:46;;;;;;;;;15.00;13.00;;;;;;;;5076321;27;45291;-71
2021/10/24 01:42:11;;;;;;;;;15.75;15.50;;;;;;;;5080796;27;45308;-72
2021/10/24 01:44:37;;;;;;;;;15.75;15.75;;;;;;;;5078788;27;45440;-71
2021/10/24 01:47:02;;;;;;;;;20.75;18.00;;;;;;;;5076939;27;46081;-70
2021/10/24 01:49:27;;;;;;;;;16.50;14.00;;;;;;;;5076595;27;45554;-70
2021/10/24 01:51:53;;;;;;;;;17.75;16.00;;;;;;;;5075243;27;45480;-71
2021/10/24 01:54:18;;;;;;;;;14.25;14.25;;;;;;;;5081167;27;45212;-70
2021/10/24 01:56:43;;;;;;;;;17.50;16.50;;;;;;;;5078560;27;46159;-71
2021/10/24 01:59:09;;;;;;;;;17.50;14.00;;;;;;;;5078522;27;45488;-71
2021/10/24 02:01:34;;;;;;;;;13.25;12.50;;;;;;;;5078176;27;45394;-71
2021/10/24 02:03:59;;;;;;;;;16.75;13.25;;;;;;;;5074189;27;45458;-71
2021/10/24 02:06:24;;;;;;;;;13.00;13.00;;;;;;;;5080262;27;47006;-71
2021/10/24 02:08:50;;;;;;;;;16.00;15.75;;;;;;;;5078066;27;45272;-70
2021/10/24 02:11:15;;;;;;;;;20.50;15.75;;;;;;;;5078232;27;45199;-71
2021/10/24 02:13:40;;;;;;;;;15.75;15.00;;;;;;;;5078030;27;45487;-70
2021/10/24 02:16:06;;;;;;;;;15.75;14.50;;;;;;;;5074222;27;45962;-71
2021/10/24 02:18:31;;;;;;;;;15.75;14.50;;;;;;;;5095531;27;45335;-70
2021/10/24 02:20:56;;;;;;;;;15.25;13.00;;;;;;;;5078744;27;45240;-70
2021/10/24 02:23:22;;;;;;;;;16.50;13.75;;;;;;;;5078237;27;45258;-70
2021/10/24 02:25:47;;;;;;;;;15.25;13.25;;;;;;;;5076394;27;46452;-70
2021/10/24 02:28:12;;;;;;;;;17.00;15.75;;;;;;;;5073939;27;45544;-70
2021/10/24 02:30:37;;;;;;;;;15.75;15.00;;;;;;;;5077176;27;45560;-70
2021/10/24 02:33:03;;;;;;;;;19.00;17.00;;;;;;;;5079145;27;45528;-70
2021/10/24 02:35:29;;;;;;;;;14.00;13.00;;;;;;;;5077915;27;46890;-71
2021/10/24 02:37:54;;;;;;;;;21.75;16.50;;;;;;;;5078188;27;45457;-70
2021/10/24 02:40:20;;;;;;;;;17.75;17.50;;;;;;;;5076608;27;45245;-70
2021/10/24 02:42:45;;;;;;;;;21.00;18.50;;;;;;;;5075168;27;45302;-71
2021/10/24 02:45:10;;;;;;;;;22.50;22.50;;;;;;;;5079315;27;46736;-71
2021/10/24 02:47:36;;;;;;;;;20.25;19.25;;;;;;;;5077581;27;45348;-70
2021/10/24 02:50:02;;;;;;;;;21.75;20.00;;;;;;;;5077646;27;45400;-71
2021/10/24 02:52:27;;;;;;;;;20.00;19.67;;;;;;;;5076753;27;45566;-71
2021/10/24 02:54:54;;;;;;;;;25.75;24.00;;;;;;;;5073834;27;46029;-71
2021/10/24 02:57:20;;;;;;;;;20.25;18.00;;;;;;;;5079728;27;45360;-71
2021/10/24 02:59:45;;;;;;;;;25.25;19.75;;;;;;;;5077211;27;45569;-70
2021/10/24 03:02:10;;;;;;;;;23.75;19.75;;;;;;;;5077259;27;45581;-71
2021/10/24 03:04:36;;;;;;;;;19.00;19.00;;;;;;;;5075946;27;45563;-70
2021/10/24 03:07:01;;;;;;;;;19.75;18.50;;;;;;;;5071691;27;45384;-70
2021/10/24 03:09:26;;;;;;;;;22.00;19.25;;;;;;;;5079564;27;45438;-70
2021/10/24 03:11:52;;;;;;;;;20.75;19.50;;;;;;;;5077308;27;45623;-70
2021/10/24 03:14:17;;;;;;;;;19.75;18.75;;;;;;;;5077388;27;47209;-71
2021/10/24 03:16:43;;;;;;;;;16.50;15.75;;;;;;;;5077949;27;45295;-70
2021/10/24 03:19:08;;;;;;;;;17.50;17.50;;;;;;;;5074670;27;45438;-70
2021/10/24 03:21:33;;;;;;;;;16.25;16.25;;;;;;;;5078138;27;45382;-70
2021/10/24 03:24:00;;;;;;;;;19.75;19.00;;;;;;;;5080119;27;46267;-70
2021/10/24 03:26:26;;;;;;;;;19.00;17.25;;;;;;;;5080961;27;45518;-70
2021/10/24 03:28:51;;;;;;;;;17.75;16.50;;;;;;;;5080721;27;45470;-70
2021/10/24 03:31:16;;;;;;;;;20.25;20.25;;;;;;;;5078904;27;45298;-70
2021/10/24 03:33:41;;;;;;;;;19.00;18.00;;;;;;;;5078747;27;45540;-70
2021/10/24 03:36:07;;;;;;;;;22.25;20.25;;;;;;;;5082771;27;45356;-69
2021/10/24 03:38:32;;;;;;;;;19.00;18.25;;;;;;;;5081019;27;45208;-71
2021/10/24 03:40:57;;;;;;;;;21.25;18.50;;;;;;;;5080631;27;45182;-70
2021/10/24 03:43:22;;;;;;;;;21.75;18.75;;;;;;;;5077528;27;45258;-70
2021/10/24 03:45:47;;;;;;;;;23.25;22.00;;;;;;;;5077637;27;45579;-70
2021/10/24 03:48:13;;;;;;;;;25.25;21.75;;;;;;;;5081161;27;45210;-70
2021/10/24 03:50:38;;;;;;;;;21.25;21.25;;;;;;;;5080499;27;45390;-69
2021/10/24 03:53:03;;;;;;;;;23.75;20.75;;;;;;;;5080207;27;46198;-70
2021/10/24 03:55:28;;;;;;;;;21.25;18.75;;;;;;;;5080341;27;45358;-70
2021/10/24 03:57:54;;;;;;;;;18.75;18.75;;;;;;;;5075361;27;45276;-69
2021/10/24 04:00:19;;;;;;;;;16.50;16.50;;;;;;;;5082087;27;45379;-71
2021/10/24 04:02:57;;;;;;;;;24.25;20.25;;;;;;;;5080263;27;46346;-71
2021/10/24 04:05:24;;;;;;;;;19.00;15.75;;;;;;;;5080366;27;45540;-70
2021/10/24 04:07:49;;;;;;;;;18.50;16.75;;;;;;;;5080463;27;45414;-71
2021/10/24 04:10:15;;;;;;;;;15.50;15.50;;;;;;;;5077706;27;45491;-71
2021/10/24 04:12:40;;;;;;;;;20.25;18.75;;;;;;;;5078547;27;45410;-71
2021/10/24 04:15:05;;;;;;;;;22.25;18.25;;;;;;;;5081922;27;45469;-71
2021/10/24 04:17:30;;;;;;;;;18.50;18.50;;;;;;;;5080499;27;45331;-71
2021/10/24 04:19:56;;;;;;;;;22.00;20.00;;;;;;;;5080498;27;45296;-71
2021/10/24 04:22:21;;;;;;;;;19.75;19.00;;;;;;;;5077626;27;46327;-70
2021/10/24 04:24:46;;;;;;;;;22.75;19.75;;;;;;;;5059072;27;45382;-69
2021/10/24 04:27:11;;;;;;;;;23.25;21.50;;;;;;;;5080612;27;45305;-70
2021/10/24 04:29:36;;;;;;;;;26.25;22.50;;;;;;;;5080281;27;45595;-71
2021/10/24 04:32:01;;;;;;;;;26.25;21.50;;;;;;;;5079770;27;45455;-70
2021/10/24 04:34:27;;;;;;;;;21.25;20.00;;;;;;;;5078550;27;45304;-71
2021/10/24 04:36:52;;;;;;;;;19.25;16.50;;;;;;;;5075873;27;45483;-71
2021/10/24 04:39:17;;;;;;;;;18.75;17.50;;;;;;;;5081594;27;45321;-71
2021/10/24 04:41:42;;;;;;;;;21.75;21.75;;;;;;;;5079565;27;45494;-70
2021/10/24 04:44:08;;;;;;;;;19.00;17.75;;;;;;;;5079648;27;45444;-69
2021/10/24 04:46:33;;;;;;;;;22.25;19.50;;;;;;;;5079814;27;45310;-70
2021/10/24 04:48:58;;;;;;;;;23.25;22.00;;;;;;;;5075357;27;45380;-70
2021/10/24 04:51:23;;;;;;;;;25.25;22.00;;;;;;;;5081560;27;46213;-69
2021/10/24 04:53:49;;;;;;;;;21.50;20.00;;;;;;;;5079105;27;45296;-69
2021/10/24 04:56:14;;;;;;;;;25.50;23.75;;;;;;;;5079926;27;45490;-71
2021/10/24 04:58:39;;;;;;;;;22.75;19.25;;;;;;;;5079853;27;45337;-70
2021/10/24 05:01:04;;;;;;;;;24.75;21.75;;;;;;;;5074771;27;45808;-71
2021/10/24 05:03:30;;;;;;;;;26.25;23.00;;;;;;;;5080881;27;45346;-72
2021/10/24 05:05:55;;;;;;;;;20.00;18.50;;;;;;;;5062363;27;45545;-70
2021/10/24 05:08:21;;;;;;;;;25.50;24.50;;;;;;;;5079623;27;45280;-71
2021/10/24 05:10:46;;;;;;;;;21.25;19.25;;;;;;;;5079544;27;46108;-71
2021/10/24 05:13:11;;;;;;;;;21.50;19.00;;;;;;;;5076327;27;45574;-70
2021/10/24 05:15:36;;;;;;;;;26.00;23.75;;;;;;;;5078883;27;45433;-70
2021/10/24 05:18:02;;;;;;;;;22.25;20.75;;;;;;;;5080306;27;45325;-70
2021/10/24 05:20:27;;;;;;;;;22.50;22.50;;;;;;;;5079562;27;45534;-70
2021/10/24 05:22:52;;;;;;;;;21.50;19.75;;;;;;;;5079376;27;45327;-72
2021/10/24 05:25:17;;;;;;;;;17.50;17.25;;;;;;;;5077230;27;45306;-72
2021/10/24 05:27:43;;;;;;;;;22.25;21.00;;;;;;;;5076710;27;45323;-72
2021/10/24 05:30:08;;;;;;;;;20.75;19.00;;;;;;;;5080705;27;45409;-72
2021/10/24 05:32:34;;;;;;;;;21.75;21.25;;;;;;;;5078549;27;45283;-72
2021/10/24 05:34:59;;;;;;;;;22.25;18.00;;;;;;;;5078904;27;45379;-71
2021/10/24 05:37:24;;;;;;;;;19.50;19.50;;;;;;;;5077185;27;45375;-71
2021/10/24 05:39:49;;;;;;;;;23.00;21.75;;;;;;;;5074580;27;46096;-71
2021/10/24 05:42:15;;;;;;;;;19.00;17.50;;;;;;;;5079341;27;45290;-72
2021/10/24 05:44:40;;;;;;;;;17.75;16.00;;;;;;;;5077374;27;45477;-71
2021/10/24 05:47:06;;;;;;;;;19.00;19.00;;;;;;;;5078512;27;45271;-72
2021/10/24 05:49:31;;;;;;;;;20.25;16.75;;;;;;;;5078831;27;46517;-71
2021/10/24 05:51:57;;;;;;;;;21.00;16.50;;;;;;;;5057662;28;45620;-71
2021/10/24 05:54:22;;;;;;;;;21.00;18.00;;;;;;;;5080881;27;45447;-71
2021/10/24 05:56:47;;;;;;;;;17.75;17.25;;;;;;;;5060599;28;45445;-70
2021/10/24 05:59:12;;;;;;;;;21.75;21.25;;;;;;;;5078560;27;45326;-71
2021/10/24 06:01:38;;;;;;;;;21.25;18.50;;;;;;;;5078352;27;45307;-70
2021/10/24 06:04:03;;;;;;;;;22.75;17.75;;;;;;;;5074401;27;45486;-70
2021/10/24 06:06:28;;;;;;;;;19.00;15.25;;;;;;;;5079639;27;45411;-70
2021/10/24 06:08:54;;;;;;;;;19.50;16.75;;;;;;;;5078161;27;46320;-70
2021/10/24 06:11:28;;;;;;;;;18.00;16.50;;;;;;;;5077897;27;45398;-70
2021/10/24 06:13:55;;;;;;;;;25.75;20.75;;;;;;;;5077958;27;45350;-70
2021/10/24 06:16:20;;;;;;;;;21.00;18.00;;;;;;;;5076498;27;45499;-70
2021/10/24 06:18:45;;;;;;;;;21.25;18.25;;;;;;;;5075361;27;47334;-70
2021/10/24 06:21:10;;;;;;;;;18.75;17.75;;;;;;;;5077672;27;45253;-70
2021/10/24 06:23:36;;;;;;;;;18.50;16.00;;;;;;;;5076508;27;45422;-71
2021/10/24 06:26:01;;;;;;;;;19.75;18.50;;;;;;;;5078142;27;45509;-71
2021/10/24 06:28:27;;;;;;;;;19.75;18.50;;;;;;;;5058846;27;46177;-71
2021/10/24 06:30:52;;;;;;;;;21.50;17.75;;;;;;;;5055788;28;45300;-72
2021/10/24 06:33:17;;;;;;;;;17.25;17.25;;;;;;;;5079825;27;45363;-71
2021/10/24 06:35:42;;;;;;;;;18.25;17.25;;;;;;;;5077739;27;45293;-70
2021/10/24 06:38:08;;;;;;;;;17.25;17.25;;;;;;;;5076696;27;46063;-71
2021/10/24 06:40:33;;;;;;;;;18.00;16.75;;;;;;;;5077747;27;45340;-71
2021/10/24 06:42:58;;;;;;;;;20.00;18.50;;;;;;;;5073700;27;45347;-72
2021/10/24 06:45:25;;;;;;;;;14.50;14.50;;;;;;;;5079682;27;45552;-72
2021/10/24 06:47:50;;;;;;;;;20.50;16.00;;;;;;;;5077115;27;45403;-71
2021/10/24 06:50:15;;;;;;;;;18.75;17.00;;;;;;;;5076863;27;45285;-70
2021/10/24 06:52:41;;;;;;;;;22.00;17.75;;;;;;;;5077326;27;45421;-70
2021/10/24 06:55:06;;;;;;;;;19.25;17.50;;;;;;;;5056082;27;45600;-70
2021/10/24 06:57:33;;;;;;;;;18.25;18.25;;;;;;;;5077822;27;47991;-71
2021/10/24 07:00:00;;;;;;;;;17.00;16.00;;;;;;;;5076518;27;45480;-71
2021/10/24 07:02:25;;;;;;;;;19.50;16.00;;;;;;;;5076008;27;45368;-70
2021/10/24 07:04:50;;;;;;;;;20.50;19.25;;;;;;;;5076930;27;45543;-70
2021/10/24 07:07:21;;;;;;;;;17.00;16.50;;;;;;;;5074961;27;45459;-70
2021/10/24 07:09:46;;;;;;;;;21.75;21.75;;;;;;;;5074137;27;45259;-72
2021/10/24 07:12:12;;;;;;;;;20.75;20.00;;;;;;;;5079494;27;45371;-72
2021/10/24 07:14:38;;;;;;;;;18.50;17.00;;;;;;;;5077332;27;45481;-72
2021/10/24 07:17:03;;;;;;;;;20.50;20.50;;;;;;;;5077270;27;47036;-72
2021/10/24 07:19:28;;;;;;;;;13.00;11.50;;;;;;;;5076596;27;45169;-71
2021/10/24 07:21:53;;;;;;;;;18.50;14.50;;;;;;;;5073678;27;45514;-71
2021/10/24 07:24:18;;;;;;;;;16.50;14.75;;;;;;;;5079771;27;45477;-70
2021/10/24 07:26:44;;;;;;;;;13.00;13.00;;;;;;;;5077304;27;46128;-71
2021/10/24 07:29:09;;;;;;;;;13.25;12.25;;;;;;;;5074502;27;45354;-71
2021/10/24 07:31:34;;;;;;;;;16.25;16.25;;;;;;;;5076837;27;45426;-72
2021/10/24 07:33:59;;;;;;;;;11.75;10.25;;;;;;;;5071897;28;45375;-72
2021/10/24 07:36:24;;;;;;;;;13.25;12.00;;;;;;;;5078496;27;47099;-72
2021/10/24 07:38:50;;;;;;;;;14.50;13.50;;;;;;;;5075420;27;45329;-71
2021/10/24 07:41:15;;;;;;;;;15.25;12.50;;;;;;;;5075195;27;45399;-71
2021/10/24 07:43:40;;;;;;;;;13.50;13.25;;;;;;;;5076660;27;45513;-72
2021/10/24 07:46:06;;;;;;;;;17.00;14.00;;;;;;;;5072729;27;47276;-72
2021/10/24 07:48:31;;;;;;;;;13.50;13.50;;;;;;;;5076865;27;45321;-71
2021/10/24 07:50:56;;;;;;;;;15.25;13.25;;;;;;;;5076927;27;45417;-72
2021/10/24 07:53:25;;;;;;;;;10.75;10.75;;;;;;;;5076251;27;45401;-71
2021/10/24 07:55:51;;;;;;;;;15.50;14.25;;;;;;;;5075962;27;46358;-73
2021/10/24 07:58:17;;;;;;;;;11.00;10.75;;;;;;;;5074146;27;45342;-73
2021/10/24 08:00:42;;;;;;;;;12.00;10.75;;;;;;;;5074352;27;45498;-72
2021/10/24 08:03:07;;;;;;;;;14.25;12.25;;;;;;;;5059285;28;45280;-74
2021/10/24 08:05:32;;;;;;;;;13.75;12.00;;;;;;;;5076091;27;45269;-73
2021/10/24 08:07:59;;;;;;;;;11.50;7.00;;;;;;;;5073979;27;45409;-73
2021/10/24 08:10:24;;;;;;;;;11.75;8.00;;;;;;;;5077361;27;45561;-74
2021/10/24 08:12:49;;;;;;;;;13.25;11.75;;;;;;;;5075693;27;49665;-73
2021/10/24 08:15:14;;;;;;;;;12.00;10.50;;;;;;;;5080895;27;46011;-73
2021/10/24 08:17:40;;;;;;;;;15.50;13.50;;;;;;;;5077339;27;45408;-74
2021/10/24 08:20:06;;;;;;;;;9.25;9.25;;;;;;;;5077607;27;45590;-73
2021/10/24 08:22:32;;;;;;;;;11.25;10.50;;;;;;;;5079184;27;45524;-73
2021/10/24 08:24:58;;;;;;;;;11.75;10.75;;;;;;;;5075245;27;47858;-73
2021/10/24 08:27:23;;;;;;;;;13.50;13.50;;;;;;;;5081252;27;45441;-74
2021/10/24 08:29:48;;;;;;;;;16.00;13.75;;;;;;;;5079599;27;45481;-73
2021/10/24 08:32:13;;;;;;;;;14.50;12.50;;;;;;;;5079841;27;45331;-74
2021/10/24 08:34:40;;;;;;;;;15.00;14.00;;;;;;;;5078965;27;47427;-73
2021/10/24 08:37:06;;;;;;;;;12.50;12.00;;;;;;;;5075425;27;45291;-74
2021/10/24 08:39:31;;;;;;;;;14.00;14.00;;;;;;;;5079961;27;45414;-74
2021/10/24 08:41:57;;;;;;;;;11.00;10.00;;;;;;;;5079326;27;45267;-74
2021/10/24 08:44:24;;;;;;;;;14.75;13.50;;;;;;;;5077521;27;45336;-75
2021/10/24 08:46:50;;;;;;;;;13.75;13.75;;;;;;;;5078595;27;45268;-75
2021/10/24 08:49:15;;;;;;;;;16.75;14.75;;;;;;;;5076576;27;45711;-74
2021/10/24 08:51:40;;;;;;;;;19.50;16.50;;;;;;;;5077522;27;45454;-74
2021/10/24 08:54:08;;;;;;;;;18.00;16.00;;;;;;;;5079941;27;46071;-73
2021/10/24 08:56:34;;;;;;;;;16.75;16.50;;;;;;;;5076279;27;45317;-73
2021/10/24 08:59:00;;;;;;;;;13.50;13.50;;;;;;;;5077140;27;45793;-77
2021/10/24 09:01:25;;;;;;;;;14.00;12.50;;;;;;;;5077305;27;45444;-73
2021/10/24 09:04:01;;;;;;;;;17.25;14.00;;;;;;;;5074808;27;45959;-72
2021/10/24 09:06:46;;;;;;;;;16.25;14.00;;;;;;;;5087493;27;45297;-73
2021/10/24 09:09:13;;;;;;;;;16.50;15.50;;;;;;;;5065746;27;45414;-70
2021/10/24 09:11:42;;;;;;;;;13.75;12.75;;;;;;;;5078241;27;45396;-70
2021/10/24 09:14:07;;;;;;;;;16.00;14.25;;;;;;;;5077340;27;47180;-69
2021/10/24 09:16:50;;;;;;;;;15.00;12.75;;;;;;;;5077272;27;45354;-70
2021/10/24 09:19:16;;;;;;;;;16.50;13.25;;;;;;;;5075363;27;45453;-70
2021/10/24 09:21:41;;;;;;;;;13.50;12.75;;;;;;;;5075833;27;45445;-71
2021/10/24 09:24:06;;;;;;;;;15.25;14.75;;;;;;;;5079195;27;46156;-69
2021/10/24 09:26:31;;;;;;;;;16.50;16.25;;;;;;;;5075082;27;45505;-70
2021/10/24 09:29:01;;;;;;;;;16.25;14.50;;;;;;;;5077824;27;45437;-70
2021/10/24 09:31:27;;;;;;;;;14.50;14.00;;;;;;;;5076209;27;45478;-71
2021/10/24 09:33:53;;;;;;;;;17.00;17.00;;;;;;;;5073306;27;45474;-70
2021/10/24 09:36:24;;;;;;;;;13.25;12.50;;;;;;;;5078669;27;45375;-70
2021/10/24 09:38:50;;;;;;;;;14.50;14.25;;;;;;;;5075847;27;45489;-70
2021/10/24 09:41:15;;;;;;;;;13.50;13.50;;;;;;;;5077399;27;45477;-72
2021/10/24 09:43:43;;;;;;;;;15.00;14.25;;;;;;;;5077045;27;46105;-73
2021/10/24 09:46:08;;;;;;;;;19.50;17.50;;;;;;;;5073666;27;45523;-73
2021/10/24 09:48:34;;;;;;;;;16.00;15.00;;;;;;;;5079138;27;45307;-79
2021/10/24 09:51:01;;;;;;;;;16.50;16.50;;;;;;;;5078913;27;45513;-69
2021/10/24 09:53:27;;;;;;;;;18.25;14.50;;;;;;;;5076847;27;45228;-71
2021/10/24 09:55:53;;;;;;;;;16.75;15.00;;;;;;;;5077045;27;45415;-71
2021/10/24 09:58:18;;;;;;;;;20.50;20.50;;;;;;;;5075097;27;45445;-71
2021/10/24 10:00:44;;;;;;;;;17.25;14.25;;;;;;;;5074794;27;45295;-72
2021/10/24 10:03:10;;;;;;;;;16.75;16.00;;;;;;;;5079194;27;48329;-74
2021/10/24 10:05:36;;;;;;;;;11.75;11.75;;;;;;;;5075001;27;45536;-71
2021/10/24 10:08:02;;;;;;;;;18.50;17.00;;;;;;;;5077197;27;45507;-73
2021/10/24 10:10:29;;;;;;;;;15.25;14.25;;;;;;;;5075891;27;45442;-75
2021/10/24 10:12:56;;;;;;;;;17.00;15.25;;;;;;;;5071449;27;47104;-74
2021/10/24 10:15:22;;;;;;;;;14.50;12.00;;;;;;;;5077997;27;45405;-74
2021/10/24 10:17:55;;;;;;;;;13.00;12.75;;;;;;;;5074982;27;45584;-74
2021/10/24 10:20:24;;;;;;;;;13.75;13.00;;;;;;;;5075530;27;45579;-73
2021/10/24 10:23:03;;;;;;;;;16.25;13.25;;;;;;;;5075878;27;45450;-75
2021/10/24 10:25:29;;;;;;;;;18.00;15.00;;;;;;;;5075992;27;45481;-76
2021/10/24 10:27:55;;;;;;;;;16.25;12.50;;;;;;;;5072069;27;45351;-74
2021/10/24 10:30:31;;;;;;;;;12.00;11.50;;;;;;;;5078150;27;45418;-75
2021/10/24 10:32:56;;;;;;;;;11.75;11.75;;;;;;;;5074997;27;46460;-75
2021/10/24 10:35:23;;;;;;;;;13.00;12.00;;;;;;;;5075977;27;45731;-73
2021/10/24 10:37:51;;;;;;;;;11.25;11.00;;;;;;;;5076908;27;45584;-74
2021/10/24 10:40:16;;;;;;;;;16.75;16.00;;;;;;;;5073042;27;45439;-74
2021/10/24 10:42:43;;;;;;;;;19.00;15.75;;;;;;;;5074731;27;46080;-73
2021/10/24 10:45:14;;;;;;;;;11.25;10.75;;;;;;;;5078316;27;45212;-75
2021/10/24 10:47:52;;;;;;;;;13.25;13.00;;;;;;;;5077033;27;47913;-75
2021/10/24 10:50:41;;;;;;;;;15.25;13.00;;;;;;;;5076766;27;45241;-75
2021/10/24 10:53:08;;;;;;;;;18.75;17.50;;;;;;;;5074952;27;46175;-74
2021/10/24 10:55:52;;;;;;;;;11.75;11.75;;;;;;;;5050725;27;45556;-76
2021/10/24 10:58:32;;;;;;;;;10.00;10.00;;;;;;;;5069654;28;45446;-74
2021/10/24 11:00:57;;;;;;;;;13.50;12.75;;;;;;;;5071759;27;45514;-75
2021/10/24 11:03:44;;;;;;;;;14.25;14.25;;;;;;;;5071474;27;46996;-74
2021/10/24 11:06:25;;;;;;;;;15.00;14.25;;;;;;;;5072519;27;45437;-78
2021/10/24 11:08:53;;;;;;;;;13.25;13.00;;;;;;;;5069685;28;45276;-74
2021/10/24 11:11:40;;;;;;;;;13.75;13.75;;;;;;;;5069951;28;45303;-73
2021/10/24 11:14:11;;;;;;;;;13.00;11.25;;;;;;;;5067901;28;47002;-75
2021/10/24 11:16:36;;;;;;;;;17.50;13.50;;;;;;;;5075553;27;45301;-76
2021/10/24 11:19:05;;;;;;;;;13.50;12.00;;;;;;;;5088561;27;45291;-74
2021/10/24 11:21:31;;;;;;;;;10.25;9.00;;;;;;;;5084510;27;45472;-74
2021/10/24 11:23:56;;;;;;;;;14.00;14.00;;;;;;;;5090000;27;48092;-75
2021/10/24 11:26:21;;;;;;;;;12.25;11.75;;;;;;;;5090934;27;45343;-76
2021/10/24 11:28:47;;;;;;;;;15.25;13.75;;;;;;;;5079234;27;45506;-75
2021/10/24 11:31:17;;;;;;;;;12.50;12.50;;;;;;;;5074914;27;45484;-76
2021/10/24 11:33:46;;;;;;;;;10.25;10.25;;;;;;;;5073794;27;47042;-75
2021/10/24 11:36:12;;;;;;;;;14.75;13.00;;;;;;;;5075871;27;45475;-74
2021/10/24 11:38:37;;;;;;;;;14.50;11.50;;;;;;;;5075255;27;45403;-74
2021/10/24 11:41:05;;;;;;;;;17.50;13.50;;;;;;;;5074978;27;45370;-75
2021/10/24 11:43:32;;;;;;;;;13.50;12.50;;;;;;;;5074394;27;47224;-76
2021/10/24 11:45:57;;;;;;;;;14.75;14.75;;;;;;;;5074077;27;45451;-75
2021/10/24 11:48:30;;;;;;;;;12.50;11.25;;;;;;;;5062420;27;45336;-78
2021/10/24 11:51:00;;;;;;;;;10.25;10.25;;;;;;;;5074055;27;45289;-73
2021/10/24 11:53:30;;;;;;;;;14.00;12.75;;;;;;;;5079409;27;46714;-75
2021/10/24 11:55:56;;;;;;;;;14.50;13.25;;;;;;;;5078673;27;45500;-73
2021/10/24 11:58:33;;;;;;;;;12.75;12.75;;;;;;;;5076876;27;45370;-76
2021/10/24 12:01:06;;;;;;;;;17.00;14.00;;;;;;;;5057462;28;45500;-74
2021/10/24 12:03:32;;;;;;;;;14.25;12.25;;;;;;;;5056016;28;46056;-74
2021/10/24 12:05:57;;;;;;;;;14.25;13.50;;;;;;;;5086371;27;45824;-74
2021/10/24 12:08:38;;;;;;;;;12.00;9.75;;;;;;;;5083413;27;45315;-74
2021/10/24 12:11:04;;;;;;;;;9.50;9.00;;;;;;;;5076983;27;45548;-75
2021/10/24 12:13:34;;;;;;;;;17.00;14.00;;;;;;;;5077806;27;45976;-76
2021/10/24 12:16:00;;;;;;;;;15.75;14.75;;;;;;;;5058219;27;45607;-76
2021/10/24 12:18:26;;;;;;;;;13.00;10.75;;;;;;;;5080344;27;45346;-75
2021/10/24 12:20:54;;;;;;;;;11.25;11.25;;;;;;;;5077963;27;45581;-75
2021/10/24 12:23:19;;;;;;;;;11.75;10.50;;;;;;;;5077204;27;46134;-76
2021/10/24 12:25:49;;;;;;;;;12.67;11.33;;;;;;;;5078354;27;45459;-77
2021/10/24 12:28:31;;;;;;;;;14.75;14.00;;;;;;;;5076634;27;45527;-76
2021/10/24 12:31:11;;;;;;;;;14.67;12.33;;;;;;;;5074088;27;45375;-76
2021/10/24 12:33:41;;;;;;;;;14.50;11.25;;;;;;;;5089111;27;46034;-75
2021/10/24 12:36:08;;;;;;;;;15.00;12.25;;;;;;;;5088797;27;45474;-76
2021/10/24 12:38:49;;;;;;;;;12.00;12.00;;;;;;;;5080056;27;45379;-76
2021/10/24 12:41:18;;;;;;;;;10.00;9.00;;;;;;;;5078117;27;45700;-76
2021/10/24 12:43:50;;;;;;;;;14.00;13.50;;;;;;;;5078335;27;46400;-74
2021/10/24 12:46:26;;;;;;;;;14.33;12.67;;;;;;;;5075917;27;45521;-77
2021/10/24 12:48:52;;;;;;;;;12.33;11.67;;;;;;;;5074105;27;45285;-76
2021/10/24 12:51:27;;;;;;;;;12.00;12.00;;;;;;;;5077864;27;45355;-76
2021/10/24 12:53:53;;;;;;;;;10.00;9.00;;;;;;;;5074873;27;46018;-76
2021/10/24 12:56:18;;;;;;;;;9.00;9.00;;;;;;;;5074479;27;45392;-76
2021/10/24 12:58:43;;;;;;;;;11.00;8.67;;;;;;;;5076760;27;45431;-75
2021/10/24 13:01:18;;;;;;;;;10.33;8.00;;;;;;;;5073024;27;45509;-76
2021/10/24 13:03:44;;;;;;;;;12.67;9.33;;;;;;;;5076126;27;46251;-76
2021/10/24 13:06:10;;;;;;;;;8.00;5.67;;;;;;;;5080500;27;45385;-74
2021/10/24 13:08:35;;;;;;;;;7.67;6.33;;;;;;;;5077421;27;45426;-76
2021/10/24 13:11:00;;;;;;;;;8.00;8.00;;;;;;;;5077915;27;45433;-76
2021/10/24 13:13:25;;;;;;;;;7.00;7.00;;;;;;;;5076259;27;45731;-74
2021/10/24 13:15:50;;;;;;;;;7.33;7.33;;;;;;;;5073735;27;45527;-74
2021/10/24 13:18:16;;;;;;;;;6.67;6.00;;;;;;;;5078327;27;45480;-74
2021/10/24 13:20:44;;;;;;;;;6.00;5.00;;;;;;;;5078830;27;45600;-76
2021/10/24 13:23:09;;;;;;;;;8.33;7.67;;;;;;;;5078533;27;46657;-72
2021/10/24 13:25:35;;;;;;;;;5.00;5.00;;;;;;;;5081350;27;45292;-70
2021/10/24 13:28:01;;;;;;;;;7.33;7.33;;;;;;;;5071928;27;45393;-69
2021/10/24 13:30:32;;;;;;;;;7.67;7.67;;;;;;;;5078727;27;45366;-71
2021/10/24 13:32:57;;;;;;;;;9.00;7.00;;;;;;;;5076924;27;47163;-69
2021/10/24 13:35:24;;;;;;;;;7.00;7.00;;;;;;;;5074799;27;45562;-72
2021/10/24 13:37:53;;;;;;;;;5.67;5.67;;;;;;;;5076273;27;45532;-70
2021/10/24 13:40:18;;;;;;;;;4.67;4.67;;;;;;;;5074684;27;45929;-71
2021/10/24 13:42:43;;;;;;;;;6.67;6.67;;;;;;;;5074188;27;47141;-68
2021/10/24 13:45:12;;;;;;;;;5.00;5.00;;;;;;;;5078293;27;45226;-69
2021/10/24 13:47:37;;;;;;;;;12.33;11.00;;;;;;;;5076623;27;45421;-69
2021/10/24 13:50:03;;;;;;;;;7.00;6.33;;;;;;;;5076714;27;45464;-70
2021/10/24 13:52:29;;;;;;;;;7.00;6.33;;;;;;;;5075306;27;45431;-70
2021/10/24 13:54:54;;;;;;;;;7.00;7.00;;;;;;;;5054186;28;45405;-70
2021/10/24 13:57:19;;;;;;;;;8.00;6.33;;;;;;;;5078910;27;45499;-70
2021/10/24 13:59:46;;;;;;;;;10.33;9.33;;;;;;;;5075856;27;45526;-71
2021/10/24 14:02:11;;;;;;;;;8.67;7.33;;;;;;;;5075338;27;47471;-70
2021/10/24 14:04:36;;;;;;;;;9.00;6.67;;;;;;;;5074808;27;45378;-70
2021/10/24 14:07:03;;;;;;;;;7.67;7.00;;;;;;;;5069987;28;45321;-71
2021/10/24 14:09:28;;;;;;;;;5.67;5.67;;;;;;;;5089755;27;45363;-71
2021/10/24 14:11:54;;;;;;;;;7.00;7.00;;;;;;;;5074214;27;46016;-71
2021/10/24 14:14:19;;;;;;;;;8.33;8.33;;;;;;;;5055520;28;45525;-71